createdAt,value
2018-12-20T00:00:08.465Z,26.13
2018-12-20T00:02:35.012Z,25.87
2018-12-20T00:05:01.480Z,24.97
2018-12-20T00:07:27.987Z,24.90
2018-12-20T00:09:54.294Z,24.50
2018-12-20T00:12:20.804Z,24.60
2018-12-20T00:14:47.173Z,25.80
2018-12-20T00:17:19.674Z,27.53
2018-12-20T00:19:45.973Z,25.93
2018-12-20T00:22:12.314Z,24.67
2018-12-20T00:24:38.812Z,24.57
2018-12-20T00:27:05.153Z,23.93
2018-12-20T00:29:31.517Z,25.40
2018-12-20T00:31:58.104Z,26.17
2018-12-20T00:34:24.510Z,24.73
2018-12-20T00:36:51.095Z,25.20
2018-12-20T00:39:17.460Z,25.20
2018-12-20T00:41:43.872Z,26.37
2018-12-20T00:44:10.205Z,26.63
2018-12-20T00:46:36.459Z,25.80
2018-12-20T00:49:03.058Z,26.57
2018-12-20T00:51:29.632Z,25.40
2018-12-20T00:53:56.005Z,26.53
2018-12-20T00:56:22.338Z,27.10
2018-12-20T00:58:48.766Z,26.17
2018-12-20T01:01:15.200Z,24.50
2018-12-20T01:03:41.556Z,26.57
2018-12-20T01:06:07.861Z,27.63
2018-12-20T01:08:34.219Z,27.63
2018-12-20T01:11:00.762Z,28.10
2018-12-20T01:13:27.166Z,28.43
2018-12-20T01:15:53.612Z,27.27
2018-12-20T01:18:19.806Z,26.10
2018-12-20T01:20:46.234Z,28.00
2018-12-20T01:23:12.613Z,27.07
2018-12-20T01:25:39.094Z,28.67
2018-12-20T01:28:05.667Z,26.93
2018-12-20T01:30:32.073Z,28.10
2018-12-20T01:32:58.413Z,27.30
2018-12-20T01:35:24.735Z,26.60
2018-12-20T01:37:51.208Z,27.23
2018-12-20T01:40:17.703Z,27.23
2018-12-20T01:42:44.379Z,27.33
2018-12-20T01:45:10.999Z,27.23
2018-12-20T01:47:37.471Z,28.57
2018-12-20T01:50:05.940Z,28.80
2018-12-20T01:52:32.400Z,25.83
2018-12-20T01:54:59.047Z,26.83
2018-12-20T01:57:25.584Z,27.17
2018-12-20T01:59:51.870Z,27.70
2018-12-20T02:02:18.236Z,27.83
2018-12-20T02:04:44.511Z,28.73
2018-12-20T02:07:10.797Z,26.30
2018-12-20T02:09:37.242Z,27.33
2018-12-20T02:12:03.684Z,28.00
2018-12-20T02:14:30.086Z,29.90
2018-12-20T02:16:56.647Z,27.30
2018-12-20T02:19:23.145Z,27.20
2018-12-20T02:21:49.642Z,28.50
2018-12-20T02:24:15.919Z,28.17
2018-12-20T02:26:42.411Z,28.90
2018-12-20T02:29:08.748Z,27.50
2018-12-20T02:31:35.031Z,28.53
2018-12-20T02:34:01.861Z,28.57
2018-12-20T02:36:28.383Z,29.67
2018-12-20T02:38:54.899Z,28.47
2018-12-20T02:41:21.433Z,30.10
2018-12-20T02:43:47.955Z,30.60
2018-12-20T02:46:14.412Z,30.07
2018-12-20T02:48:40.795Z,29.80
2018-12-20T02:51:07.233Z,30.37
2018-12-20T02:53:33.741Z,27.50
2018-12-20T02:56:00.148Z,29.40
2018-12-20T02:58:26.344Z,29.13
2018-12-20T03:00:52.621Z,30.10
2018-12-20T03:03:19.137Z,28.67
2018-12-20T03:05:45.624Z,30.17
2018-12-20T03:08:12.019Z,28.50
2018-12-20T03:10:38.410Z,30.07
2018-12-20T03:13:05.150Z,29.87
2018-12-20T03:15:31.708Z,30.77
2018-12-20T03:17:58.346Z,30.47
2018-12-20T03:20:24.784Z,30.20
2018-12-20T03:22:51.081Z,29.17
2018-12-20T03:25:17.368Z,30.10
2018-12-20T03:27:43.862Z,29.80
2018-12-20T03:30:10.290Z,29.83
2018-12-20T03:32:36.587Z,30.80
2018-12-20T03:35:03.414Z,29.70
2018-12-20T03:37:29.688Z,30.93
2018-12-20T03:39:56.865Z,29.73
2018-12-20T03:42:23.470Z,28.90
2018-12-20T03:44:49.893Z,28.83
2018-12-20T03:47:16.325Z,29.50
2018-12-20T03:49:42.643Z,30.57
2018-12-20T03:52:09.064Z,29.73
2018-12-20T03:54:35.500Z,31.73
2018-12-20T03:57:01.795Z,30.17
2018-12-20T03:59:28.098Z,31.70
2018-12-20T04:01:54.521Z,31.47
2018-12-20T04:04:21.038Z,29.17
2018-12-20T04:06:47.441Z,31.30
2018-12-20T04:09:13.831Z,31.80
2018-12-20T04:11:40.288Z,31.20
2018-12-20T04:14:06.663Z,32.20
2018-12-20T04:16:33.521Z,32.60
2018-12-20T04:19:00.202Z,32.30
2018-12-20T04:21:26.555Z,29.43
2018-12-20T04:23:53.017Z,30.77
2018-12-20T04:26:19.459Z,30.33
2018-12-20T04:28:46.074Z,29.57
2018-12-20T04:31:12.628Z,29.70
2018-12-20T04:33:39.091Z,31.20
2018-12-20T04:36:05.636Z,31.00
2018-12-20T04:38:31.940Z,29.73
2018-12-20T04:40:58.220Z,31.10
2018-12-20T04:43:24.592Z,30.10
2018-12-20T04:45:51.053Z,30.03
2018-12-20T04:48:18.009Z,31.90
2018-12-20T04:50:45.113Z,32.60
2018-12-20T04:53:11.542Z,30.63
2018-12-20T04:55:38.073Z,29.43
2018-12-20T04:58:04.628Z,29.57
2018-12-20T05:00:30.974Z,32.77
2018-12-20T05:02:57.343Z,31.10
2018-12-20T05:05:24.111Z,31.73
2018-12-20T05:07:50.720Z,30.47
2018-12-20T05:10:17.106Z,31.83
2018-12-20T05:12:43.811Z,31.13
2018-12-20T05:15:10.549Z,30.07
2018-12-20T05:17:36.904Z,29.67
2018-12-20T05:20:03.898Z,30.80
2018-12-20T05:22:30.200Z,28.67
2018-12-20T05:24:56.594Z,30.23
2018-12-20T05:27:23.091Z,30.47
2018-12-20T05:29:49.507Z,32.30
2018-12-20T05:32:15.926Z,30.10
2018-12-20T05:34:42.293Z,28.90
2018-12-20T05:37:08.806Z,30.30
2018-12-20T05:39:35.479Z,31.37
2018-12-20T05:42:02.051Z,32.93
2018-12-20T05:44:28.449Z,31.63
2018-12-20T05:46:54.782Z,30.90
2018-12-20T05:49:21.147Z,31.50
2018-12-20T05:51:47.642Z,29.77
2018-12-20T05:54:14.116Z,33.50
2018-12-20T05:56:40.513Z,31.87
2018-12-20T05:59:06.850Z,31.17
2018-12-20T06:01:33.154Z,29.73
2018-12-20T06:03:59.577Z,30.00
2018-12-20T06:06:25.943Z,32.03
2018-12-20T06:08:52.675Z,30.87
2018-12-20T06:11:19.141Z,30.43
2018-12-20T06:13:45.636Z,30.57
2018-12-20T06:16:12.978Z,31.37
2018-12-20T06:18:39.846Z,30.80
2018-12-20T06:21:06.230Z,31.20
2018-12-20T06:23:32.531Z,31.00
2018-12-20T06:25:58.813Z,29.40
2018-12-20T06:28:25.116Z,30.30
2018-12-20T06:30:51.496Z,28.33
2018-12-20T06:33:17.801Z,28.37
2018-12-20T06:35:44.298Z,30.20
2018-12-20T06:38:10.572Z,30.00
2018-12-20T06:40:36.780Z,29.37
2018-12-20T06:43:03.059Z,30.07
2018-12-20T06:45:29.359Z,31.80
2018-12-20T06:47:55.721Z,32.60
2018-12-20T06:50:22.034Z,31.20
2018-12-20T06:52:48.320Z,30.00
2018-12-20T06:55:14.632Z,29.80
2018-12-20T06:57:41.028Z,31.03
2018-12-20T07:00:08.060Z,30.17
2018-12-20T07:02:34.257Z,29.30
2018-12-20T07:05:00.752Z,30.87
2018-12-20T07:07:26.945Z,29.83
2018-12-20T07:09:53.243Z,28.73
2018-12-20T07:12:19.516Z,29.77
2018-12-20T07:14:45.810Z,29.27
2018-12-20T07:17:12.116Z,29.13
2018-12-20T07:19:38.413Z,30.90
2018-12-20T07:22:04.698Z,31.53
2018-12-20T07:24:30.984Z,29.33
2018-12-20T07:26:57.316Z,29.57
2018-12-20T07:29:23.626Z,30.80
2018-12-20T07:31:49.927Z,31.10
2018-12-20T07:34:16.346Z,31.60
2018-12-20T07:36:42.622Z,32.30
2018-12-20T07:39:08.934Z,31.43
2018-12-20T07:41:35.255Z,30.20
2018-12-20T07:44:01.801Z,30.20
2018-12-20T07:46:28.077Z,31.13
2018-12-20T07:48:54.381Z,32.50
2018-12-20T07:51:20.650Z,31.10
2018-12-20T07:53:46.846Z,29.83
2018-12-20T07:56:13.124Z,31.40
2018-12-20T07:58:39.330Z,30.97
2018-12-20T08:01:05.726Z,30.90
2018-12-20T08:03:32.013Z,30.27
2018-12-20T08:05:58.435Z,30.87
2018-12-20T08:08:24.701Z,30.10
2018-12-20T08:10:51.147Z,29.07
2018-12-20T08:13:17.416Z,30.87
2018-12-20T08:15:43.722Z,30.73
2018-12-20T08:18:09.998Z,31.87
2018-12-20T08:20:36.431Z,31.10
2018-12-20T08:23:02.651Z,32.33
2018-12-20T08:25:28.939Z,29.57
2018-12-20T08:27:55.342Z,31.47
2018-12-20T08:30:21.794Z,32.23
2018-12-20T08:32:48.086Z,30.37
2018-12-20T08:35:14.518Z,32.40
2018-12-20T08:37:40.793Z,31.30
2018-12-20T08:40:07.713Z,30.37
2018-12-20T08:42:33.902Z,31.33
2018-12-20T08:45:00.282Z,30.53
2018-12-20T08:47:26.563Z,30.13
2018-12-20T08:49:52.862Z,29.90
2018-12-20T08:52:19.139Z,30.30
2018-12-20T08:54:45.444Z,32.30
2018-12-20T08:57:11.798Z,29.87
2018-12-20T08:59:38.027Z,31.73
2018-12-20T09:02:04.414Z,31.27
2018-12-20T09:04:30.737Z,30.00
2018-12-20T09:06:56.919Z,31.30
2018-12-20T09:09:23.287Z,31.57
2018-12-20T09:11:49.579Z,30.90
2018-12-20T09:14:16.292Z,32.07
2018-12-20T09:16:42.816Z,32.97
2018-12-20T09:19:09.014Z,31.13
2018-12-20T09:21:35.436Z,30.47
2018-12-20T09:24:01.945Z,31.40
2018-12-20T09:26:28.254Z,30.90
2018-12-20T09:28:54.540Z,33.17
2018-12-20T09:31:20.879Z,30.43
2018-12-20T09:33:47.145Z,31.80
2018-12-20T09:36:13.459Z,30.93
2018-12-20T09:38:39.734Z,30.47
2018-12-20T09:41:06.219Z,30.67
2018-12-20T09:43:32.873Z,31.23
2018-12-20T09:45:59.186Z,31.37
2018-12-20T09:48:25.569Z,29.47
2018-12-20T09:50:51.875Z,29.27
2018-12-20T09:53:18.146Z,31.13
2018-12-20T09:55:44.595Z,31.07
2018-12-20T09:58:10.860Z,30.10
2018-12-20T10:00:37.168Z,31.87
2018-12-20T10:03:03.450Z,29.83
2018-12-20T10:05:29.767Z,29.03
2018-12-20T10:07:56.058Z,29.13
2018-12-20T10:10:22.482Z,30.43
2018-12-20T10:12:48.750Z,30.90
2018-12-20T10:15:15.049Z,29.70
2018-12-20T10:17:41.327Z,28.63
2018-12-20T10:20:08.257Z,29.83
2018-12-20T10:22:34.558Z,30.13
2018-12-20T10:25:01.513Z,31.60
2018-12-20T10:27:31.357Z,28.87
2018-12-20T10:29:56.056Z,29.97
2018-12-20T10:32:22.341Z,28.80
2018-12-20T10:34:48.532Z,32.00
2018-12-20T10:37:14.878Z,29.67
2018-12-20T10:39:41.170Z,30.67
2018-12-20T10:42:07.491Z,31.70
2018-12-20T10:44:33.774Z,28.60
2018-12-20T10:47:02.129Z,29.93
2018-12-20T10:49:28.444Z,28.30
2018-12-20T10:51:54.753Z,29.27
2018-12-20T10:54:21.027Z,29.20
2018-12-20T10:56:47.326Z,30.20
2018-12-20T10:59:13.722Z,30.00
2018-12-20T11:01:46.184Z,29.13
2018-12-20T11:04:19.428Z,29.00
2018-12-20T11:06:51.987Z,29.10
2018-12-20T11:09:24.420Z,30.20
2018-12-20T11:11:56.843Z,30.10
2018-12-20T11:14:23.181Z,29.63
2018-12-20T11:16:49.391Z,29.33
2018-12-20T11:19:15.565Z,28.67
2018-12-20T11:21:41.874Z,29.87
2018-12-20T11:24:08.151Z,28.20
2018-12-20T11:26:34.454Z,27.17
2018-12-20T11:29:02.213Z,28.13
2018-12-20T11:31:28.572Z,26.83
2018-12-20T11:33:54.766Z,28.07
2018-12-20T11:36:20.975Z,27.47
2018-12-20T11:38:47.246Z,27.70
2018-12-20T11:41:13.570Z,27.10
2018-12-20T11:43:39.746Z,27.83
2018-12-20T11:46:05.945Z,28.87
2018-12-20T11:48:32.122Z,28.03
2018-12-20T11:50:58.427Z,27.90
2018-12-20T11:53:24.702Z,28.73
2018-12-20T11:55:51.016Z,27.83
2018-12-20T11:58:17.300Z,27.30
2018-12-20T12:00:43.621Z,27.70
2018-12-20T12:03:09.899Z,27.43
2018-12-20T12:05:36.183Z,25.63
2018-12-20T12:08:02.614Z,24.90
2018-12-20T12:10:28.908Z,24.87
2018-12-20T12:12:55.223Z,25.63
2018-12-20T12:15:21.500Z,26.23
2018-12-20T12:17:54.198Z,24.80
2018-12-20T12:20:16.266Z,26.00
2018-12-20T12:22:42.686Z,25.67
2018-12-20T12:25:08.871Z,26.90
2018-12-20T12:27:35.254Z,25.67
2018-12-20T12:30:01.676Z,26.00
2018-12-20T12:32:27.947Z,26.80
2018-12-20T12:34:54.220Z,25.97
2018-12-20T12:37:20.504Z,25.00
2018-12-20T12:39:46.687Z,26.00
2018-12-20T12:42:12.924Z,22.57
2018-12-20T12:44:39.201Z,25.10
2018-12-20T12:47:07.573Z,23.90
2018-12-20T12:49:33.766Z,26.63
2018-12-20T12:52:00.065Z,24.97
2018-12-20T12:54:26.260Z,24.50
2018-12-20T12:56:52.512Z,25.60
2018-12-20T12:59:18.803Z,25.43
2018-12-20T13:01:45.050Z,25.03
2018-12-20T13:04:11.286Z,25.77
2018-12-20T13:06:38.028Z,24.90
2018-12-20T13:09:04.857Z,24.50
2018-12-20T13:11:31.111Z,26.50
2018-12-20T13:13:57.266Z,24.70
2018-12-20T13:16:23.555Z,25.07
2018-12-20T13:18:49.803Z,25.90
2018-12-20T13:21:16.139Z,28.00
2018-12-20T13:23:42.397Z,26.47
2018-12-20T13:26:08.909Z,27.20
2018-12-20T13:28:35.698Z,27.40
2018-12-20T13:31:02.246Z,26.60
2018-12-20T13:33:28.569Z,27.33
2018-12-20T13:35:54.816Z,25.93
2018-12-20T13:38:21.132Z,25.90
2018-12-20T13:40:47.462Z,26.27
2018-12-20T13:43:13.716Z,27.20
2018-12-20T13:45:39.921Z,26.43
2018-12-20T13:48:06.209Z,26.07
2018-12-20T13:50:33.503Z,26.23
2018-12-20T13:52:59.795Z,25.93
2018-12-20T13:55:26.039Z,25.90
2018-12-20T13:57:52.323Z,25.50
2018-12-20T14:00:18.501Z,26.20
2018-12-20T14:02:44.918Z,26.20
2018-12-20T14:05:11.338Z,26.23
2018-12-20T14:07:37.767Z,26.27
2018-12-20T14:10:05.031Z,27.17
2018-12-20T14:12:31.332Z,27.17
2018-12-20T14:14:57.834Z,26.20
2018-12-20T14:17:24.084Z,24.27
2018-12-20T14:19:50.226Z,26.63
2018-12-20T14:22:16.404Z,24.63
2018-12-20T14:24:42.747Z,26.90
2018-12-20T14:27:09.052Z,27.00
2018-12-20T14:29:35.311Z,25.70
2018-12-20T14:32:01.566Z,26.53
2018-12-20T14:34:27.867Z,25.43
2018-12-20T14:36:54.152Z,26.30
2018-12-20T14:39:20.540Z,25.97
2018-12-20T14:41:46.854Z,25.73
2018-12-20T14:44:13.128Z,26.53
2018-12-20T14:46:39.433Z,25.73
2018-12-20T14:49:05.712Z,24.50
2018-12-20T14:51:31.958Z,24.50
2018-12-20T14:53:58.238Z,25.50
2018-12-20T14:56:24.528Z,25.20
2018-12-20T14:58:50.776Z,27.30
2018-12-20T15:01:17.076Z,28.37
2018-12-20T15:03:43.327Z,26.20
2018-12-20T15:06:09.507Z,27.83
2018-12-20T15:08:35.744Z,28.20
2018-12-20T15:11:02.038Z,28.97
2018-12-20T15:13:28.335Z,28.27
2018-12-20T15:15:54.576Z,28.37
2018-12-20T15:18:20.832Z,29.30
2018-12-20T15:20:47.175Z,28.07
2018-12-20T15:23:13.451Z,28.17
2018-12-20T15:25:39.709Z,28.20
2018-12-20T15:28:06.044Z,28.00
2018-12-20T15:30:32.300Z,27.20
2018-12-20T15:32:58.588Z,28.80
2018-12-20T15:35:25.019Z,28.83
2018-12-20T15:37:51.391Z,28.00
2018-12-20T15:40:17.764Z,29.50
2018-12-20T15:42:43.956Z,27.20
2018-12-20T15:45:10.217Z,28.17
2018-12-20T15:47:36.416Z,28.20
2018-12-20T15:50:04.781Z,26.60
2018-12-20T15:52:31.033Z,28.17
2018-12-20T15:54:57.420Z,27.10
2018-12-20T15:57:23.667Z,28.73
2018-12-20T15:59:49.944Z,28.70
2018-12-20T16:02:16.244Z,26.50
2018-12-20T16:04:42.485Z,30.57
2018-12-20T16:07:08.847Z,27.97
2018-12-20T16:09:35.174Z,28.00
2018-12-20T16:12:01.647Z,28.23
2018-12-20T16:14:28.003Z,28.90
2018-12-20T16:16:54.268Z,28.90
2018-12-20T16:19:20.631Z,30.13
2018-12-20T16:21:46.771Z,29.37
2018-12-20T16:24:13.065Z,30.80
2018-12-20T16:26:39.393Z,28.53
2018-12-20T16:29:05.616Z,28.30
2018-12-20T16:31:31.865Z,29.53
2018-12-20T16:33:58.284Z,28.83
2018-12-20T16:36:24.533Z,29.87
2018-12-20T16:38:50.892Z,29.97
2018-12-20T16:41:17.158Z,29.90
2018-12-20T16:43:43.452Z,31.00
2018-12-20T16:46:09.864Z,30.33
2018-12-20T16:48:36.059Z,32.40
2018-12-20T16:51:02.729Z,31.53
2018-12-20T16:53:28.984Z,30.13
2018-12-20T16:55:55.347Z,32.63
2018-12-20T16:58:21.658Z,32.07
2018-12-20T17:00:47.958Z,31.00
2018-12-20T17:03:14.244Z,31.20
2018-12-20T17:05:40.642Z,31.07
2018-12-20T17:08:06.826Z,30.47
2018-12-20T17:10:33.091Z,32.87
2018-12-20T17:12:59.426Z,30.53
2018-12-20T17:15:25.789Z,32.23
2018-12-20T17:17:51.999Z,32.50
2018-12-20T17:20:18.281Z,30.33
2018-12-20T17:22:44.558Z,31.23
2018-12-20T17:25:10.972Z,30.17
2018-12-20T17:27:37.383Z,33.67
2018-12-20T17:30:05.890Z,31.50
2018-12-20T17:32:32.135Z,33.13
2018-12-20T17:34:58.412Z,31.33
2018-12-20T17:37:24.650Z,32.07
2018-12-20T17:39:50.791Z,33.13
2018-12-20T17:42:17.071Z,30.10
2018-12-20T17:44:43.307Z,34.20
2018-12-20T17:47:09.655Z,33.67
2018-12-20T17:49:35.876Z,33.03
2018-12-20T17:52:02.353Z,29.67
2018-12-20T17:54:28.607Z,33.97
2018-12-20T17:56:54.911Z,31.77
2018-12-20T17:59:21.186Z,33.23
2018-12-20T18:01:47.576Z,31.80
2018-12-20T18:04:13.867Z,31.00
2018-12-20T18:06:40.171Z,33.57
2018-12-20T18:09:07.755Z,34.87
2018-12-20T18:11:34.168Z,31.77
2018-12-20T18:14:00.450Z,32.60
2018-12-20T18:16:26.731Z,32.17
2018-12-20T18:18:53.291Z,34.20
2018-12-20T18:21:20.078Z,32.87
2018-12-20T18:23:46.863Z,35.00
2018-12-20T18:26:13.804Z,32.33
2018-12-20T18:28:40.606Z,32.93
2018-12-20T18:31:07.276Z,33.10
2018-12-20T18:33:34.099Z,34.03
2018-12-20T18:36:01.176Z,33.23
2018-12-20T18:38:28.397Z,32.43
2018-12-20T18:40:55.355Z,33.10
2018-12-20T18:43:22.378Z,32.90
2018-12-20T18:45:49.264Z,33.30
2018-12-20T18:48:15.561Z,31.97
2018-12-20T18:50:42.610Z,34.57
2018-12-20T18:53:09.142Z,32.93
2018-12-20T18:55:35.416Z,32.57
2018-12-20T18:58:01.724Z,32.00
2018-12-20T19:00:27.972Z,33.53
2018-12-20T19:02:54.231Z,34.23
2018-12-20T19:05:20.477Z,35.17
2018-12-20T19:07:46.658Z,34.07
2018-12-20T19:10:12.934Z,32.23
2018-12-20T19:12:39.367Z,32.40
2018-12-20T19:15:07.609Z,34.50
2018-12-20T19:17:34.766Z,33.40
2018-12-20T19:20:02.101Z,32.03
2018-12-20T19:22:28.412Z,33.50
2018-12-20T19:24:54.715Z,33.20
2018-12-20T19:27:21.574Z,37.17
2018-12-20T19:29:47.922Z,40.33
2018-12-20T19:32:14.187Z,34.07
2018-12-20T19:34:40.468Z,33.37
2018-12-20T19:37:06.630Z,32.70
2018-12-20T19:39:34.172Z,30.90
2018-12-20T19:42:02.524Z,33.37
2018-12-20T19:44:29.248Z,31.73
2018-12-20T19:46:56.132Z,31.97
2018-12-20T19:49:22.933Z,33.47
2018-12-20T19:51:50.012Z,33.20
2018-12-20T19:54:17.212Z,33.63
2018-12-20T19:56:44.308Z,32.23
2018-12-20T19:59:11.499Z,31.90
2018-12-20T20:01:38.712Z,31.70
2018-12-20T20:04:05.833Z,32.17
2018-12-20T20:06:32.980Z,32.53
2018-12-20T20:09:00.098Z,32.13
2018-12-20T20:11:26.868Z,32.13
2018-12-20T20:13:54.156Z,31.00
2018-12-20T20:16:21.381Z,31.20
2018-12-20T20:18:48.343Z,31.30
2018-12-20T20:21:15.858Z,31.37
2018-12-20T20:23:42.728Z,30.90
2018-12-20T20:26:09.611Z,32.33
2018-12-20T20:28:36.356Z,31.20
2018-12-20T20:31:03.328Z,29.97
2018-12-20T20:33:29.635Z,31.20
2018-12-20T20:35:55.888Z,30.70
2018-12-20T20:38:22.442Z,31.60
2018-12-20T20:40:49.908Z,29.00
2018-12-20T20:43:16.753Z,30.83
2018-12-20T20:45:43.085Z,29.90
2018-12-20T20:48:09.383Z,30.80
2018-12-20T20:50:35.574Z,31.20
2018-12-20T20:53:02.998Z,32.47
2018-12-20T20:55:29.335Z,32.60
2018-12-20T20:57:55.727Z,32.20
2018-12-20T21:00:22.032Z,32.33
2018-12-20T21:02:48.603Z,32.03
2018-12-20T21:05:19.857Z,34.30
2018-12-20T21:07:46.246Z,31.27
2018-12-20T21:10:12.430Z,32.60
2018-12-20T21:12:38.781Z,30.70
2018-12-20T21:15:07.545Z,31.00
2018-12-20T21:17:33.951Z,33.33
2018-12-20T21:20:00.431Z,31.27
2018-12-20T21:22:26.596Z,32.40
2018-12-20T21:24:52.889Z,31.87
2018-12-20T21:27:19.115Z,31.07
2018-12-20T21:29:45.535Z,31.43
2018-12-20T21:32:11.909Z,30.63
2018-12-20T21:34:38.121Z,30.57
2018-12-20T21:37:04.443Z,31.13
2018-12-20T21:39:30.725Z,29.93
2018-12-20T21:41:56.900Z,29.33
2018-12-20T21:44:23.208Z,31.37
2018-12-20T21:46:49.458Z,28.40
2018-12-20T21:49:15.749Z,29.83
2018-12-20T21:51:42.083Z,28.70
2018-12-20T21:54:08.327Z,28.57
2018-12-20T21:56:34.681Z,28.80
2018-12-20T21:59:01.167Z,29.90
2018-12-20T22:01:27.523Z,29.70
2018-12-20T22:03:53.803Z,29.33
2018-12-20T22:06:20.094Z,29.50
2018-12-20T22:08:46.721Z,27.83
2018-12-20T22:11:13.080Z,28.63
2018-12-20T22:13:39.384Z,27.33
2018-12-20T22:16:05.630Z,27.30
2018-12-20T22:18:32.145Z,29.97
2018-12-20T22:20:58.480Z,28.30
2018-12-20T22:23:24.936Z,29.27
2018-12-20T22:25:51.183Z,27.10
2018-12-20T22:28:17.489Z,28.53
2018-12-20T22:30:43.739Z,26.90
2018-12-20T22:33:10.043Z,25.70
2018-12-20T22:35:36.255Z,26.83
2018-12-20T22:38:02.601Z,25.83
2018-12-20T22:40:28.847Z,26.17
2018-12-20T22:42:55.203Z,26.27
2018-12-20T22:45:21.494Z,25.90
2018-12-20T22:47:47.907Z,26.30
2018-12-20T22:50:14.214Z,26.97
2018-12-20T22:52:40.368Z,26.23
2018-12-20T22:55:06.878Z,25.60
2018-12-20T22:57:33.124Z,25.50
2018-12-20T22:59:59.412Z,23.93
2018-12-20T23:02:25.764Z,26.40
2018-12-20T23:04:52.070Z,23.87
2018-12-20T23:07:19.265Z,25.80
2018-12-20T23:09:46.312Z,25.95
2018-12-20T23:12:12.732Z,25.20
2018-12-20T23:14:39.017Z,25.03
2018-12-20T23:17:05.387Z,25.20
2018-12-20T23:19:31.687Z,24.00
2018-12-20T23:21:57.933Z,25.10
2018-12-20T23:24:24.198Z,25.33
2018-12-20T23:26:50.444Z,24.40
2018-12-20T23:29:16.655Z,24.10
2018-12-20T23:31:43.019Z,24.20
2018-12-20T23:34:09.296Z,24.67
2018-12-20T23:36:35.545Z,24.40
2018-12-20T23:39:03.977Z,23.70
2018-12-20T23:41:30.215Z,24.53
2018-12-20T23:43:56.379Z,25.50
2018-12-20T23:46:22.728Z,24.90
2018-12-20T23:48:49.119Z,24.50
2018-12-20T23:51:15.362Z,23.33
2018-12-20T23:53:41.651Z,24.27
2018-12-20T23:56:07.910Z,24.03
2018-12-20T23:58:34.176Z,24.40
